»·PEaware :: N71125 KMRY-O60

N71125 :: KMRY-O60

FLIGHT INFORMATION

Flight Status: Arrived
Operator: Privately registered:
United States
More flights under this callsign
Pilot: Christian U. (16550)
Aircraft: CESSNA 172 SKYHAWK
(C172)
More flights by this aircraft type
Origin: KMRY Monterey Peninsula
United States
Destination: O60 Cloverdale Mun
United States
More flights between these airports :: More routes between these airports
Route: +SHOEY V27 PYE V301 STS
File this flight plan on PilotEdge
Remarks:
Altitude:
(Current/Filed)
10,000ft
Speed:
(Current/Filed)
110kts
Departed: 30-Jul-20 08:51 AM
Arrived: 30-Jul-20 10:27 AM
Distance/Time
Traveled:
142nm/1:36
Distance/Time
To Go:
Arrived

Flight Plot

Page will automatically refresh every two minutes.

Flight plan parsing failed; only flown route is shown


Map Options




Map Legend


Flown Route
Filed Route
Departure Airport
Arrival Airport
Navaid (VOR, NDB)
Fix

Horizontal Profiles

Position Reports

Time Latitude Longitude Heading Altitude Ground
Speed
30-Jul-20 08:34 36.584904 -121.844129 23 219ft 0kts
30-Jul-20 08:35 36.584904 -121.844129 23 219ft 0kts
30-Jul-20 08:36 36.584904 -121.844129 23 219ft 0kts
30-Jul-20 08:37 36.584904 -121.844129 23 219ft 0kts
30-Jul-20 08:38 36.584904 -121.844129 23 219ft 0kts
30-Jul-20 08:39 36.584904 -121.844129 23 219ft 0kts
30-Jul-20 08:40 36.584904 -121.844129 23 219ft 0kts
30-Jul-20 08:41 36.584904 -121.844129 23 219ft 0kts
30-Jul-20 08:42 36.584904 -121.844129 23 219ft 0kts
30-Jul-20 08:42 36.584904 -121.844129 23 219ft 0kts
30-Jul-20 08:43 36.584904 -121.844129 23 219ft 0kts
30-Jul-20 08:44 36.584904 -121.844129 23 219ft 0kts
30-Jul-20 08:46 36.586587 -121.845880 298 196ft 21kts
30-Jul-20 08:46 36.588435 -121.851147 292 174ft 20kts
30-Jul-20 08:47 36.589942 -121.855990 329 156ft 11kts
30-Jul-20 08:49 36.589978 -121.856016 331 156ft 0kts
30-Jul-20 08:49 36.590044 -121.856061 330 156ft 3kts
30-Jul-20 08:50 36.588550 -121.848425 107 223ft 74kts
30-Jul-20 08:51 36.597735 -121.833936 342 928ft 75kts
30-Jul-20 08:52 36.617985 -121.840664 341 1640ft 76kts
30-Jul-20 08:53 36.638391 -121.847486 341 2307ft 76kts
30-Jul-20 08:54 36.659129 -121.854165 341 2943ft 77kts
30-Jul-20 08:55 36.680037 -121.860658 341 3616ft 77kts
30-Jul-20 08:56 36.689956 -121.840876 95 4264ft 86kts
30-Jul-20 08:57 36.687899 -121.810825 95 4888ft 88kts
30-Jul-20 08:58 36.685832 -121.780208 95 5481ft 89kts
30-Jul-20 08:59 36.683791 -121.749135 95 6043ft 90kts
30-Jul-20 09:00 36.681795 -121.717595 95 6576ft 92kts
30-Jul-20 09:01 36.689856 -121.692805 346 7065ft 82kts
30-Jul-20 09:02 36.698292 -121.714505 276 7544ft 73kts
30-Jul-20 09:03 36.702138 -121.739778 276 8010ft 74kts
30-Jul-20 09:04 36.706477 -121.765206 276 8448ft 75kts
30-Jul-20 09:05 36.711276 -121.790933 277 8855ft 76kts
30-Jul-20 09:06 36.716487 -121.816973 277 9239ft 78kts
30-Jul-20 09:07 36.722057 -121.843318 277 9600ft 79kts
30-Jul-20 09:08 36.727899 -121.870032 275 9942ft 80kts
30-Jul-20 09:09 36.733402 -121.901239 276 9991ft 102kts
30-Jul-20 09:10 36.738443 -121.935818 273 9990ft 101kts
30-Jul-20 09:11 36.742458 -121.970900 273 9990ft 102kts
30-Jul-20 09:12 36.746827 -122.006175 272 9991ft 103kts
30-Jul-20 09:13 36.746540 -122.041185 261 9991ft 100kts
30-Jul-20 09:14 36.745314 -122.076175 261 9991ft 101kts
30-Jul-20 09:15 36.745029 -122.111242 268 10000ft 101kts
30-Jul-20 09:16 36.757299 -122.142456 311 10001ft 111kts
30-Jul-20 09:17 36.781796 -122.166612 316 10000ft 113kts
30-Jul-20 09:18 36.806203 -122.190935 315 10001ft 112kts
30-Jul-20 09:19 36.832423 -122.212947 318 9996ft 113kts
30-Jul-20 09:20 36.858233 -122.235301 318 9989ft 112kts
30-Jul-20 09:21 36.883734 -122.257755 317 9978ft 112kts
30-Jul-20 09:22 36.910873 -122.281915 322 9966ft 123kts
30-Jul-20 09:23 36.938958 -122.306729 322 9946ft 124kts
30-Jul-20 09:24 36.967266 -122.331836 322 9924ft 124kts
30-Jul-20 09:25 36.995402 -122.356848 323 9912ft 124kts
30-Jul-20 09:26 37.023428 -122.381786 323 9917ft 122kts
30-Jul-20 09:27 37.049939 -122.405218 318 9907ft 110kts
30-Jul-20 09:28 37.074156 -122.426914 318 9908ft 105kts
30-Jul-20 09:29 37.098873 -122.445719 333 9908ft 106kts
30-Jul-20 09:30 37.126758 -122.458136 334 9906ft 105kts
30-Jul-20 09:31 37.154482 -122.470070 335 9906ft 105kts
30-Jul-20 09:32 37.182098 -122.481844 335 9906ft 105kts
30-Jul-20 09:33 37.209810 -122.493630 335 9906ft 105kts
30-Jul-20 09:34 37.237464 -122.505387 335 9906ft 105kts
30-Jul-20 09:35 37.265161 -122.517167 335 9907ft 105kts
30-Jul-20 09:36 37.292794 -122.528930 335 9907ft 105kts
30-Jul-20 09:37 37.320489 -122.540730 335 9907ft 105kts
30-Jul-20 09:38 37.348158 -122.552527 335 9907ft 105kts
30-Jul-20 09:39 37.375836 -122.564338 335 9907ft 105kts
30-Jul-20 09:40 37.403613 -122.576201 335 9907ft 105kts
30-Jul-20 09:41 37.431291 -122.588031 335 9907ft 105kts
30-Jul-20 09:42 37.459003 -122.599887 335 9908ft 105kts
30-Jul-20 09:43 37.486717 -122.611755 335 9910ft 105kts
30-Jul-20 09:44 37.514486 -122.623653 335 9910ft 105kts
30-Jul-20 09:45 37.542239 -122.635552 335 9908ft 105kts
30-Jul-20 09:46 37.570108 -122.647509 335 9907ft 105kts
30-Jul-20 09:47 37.599427 -122.660117 335 9910ft 114kts
30-Jul-20 09:48 37.629804 -122.673098 335 9909ft 116kts
30-Jul-20 09:49 37.660510 -122.686269 335 9909ft 116kts
30-Jul-20 09:50 37.691279 -122.699509 335 9909ft 117kts
30-Jul-20 09:51 37.721985 -122.712740 335 9909ft 117kts
30-Jul-20 09:52 37.752766 -122.726015 335 9909ft 117kts
30-Jul-20 09:53 37.783386 -122.739230 335 9921ft 116kts
30-Jul-20 09:54 37.813987 -122.752459 335 9940ft 116kts
30-Jul-20 09:55 37.847004 -122.760585 353 9701ft 133kts
30-Jul-20 09:56 37.884667 -122.763122 353 9110ft 136kts
30-Jul-20 09:57 37.922423 -122.765836 353 8514ft 135kts
30-Jul-20 09:58 37.959893 -122.768623 353 7916ft 134kts
30-Jul-20 09:59 37.996906 -122.771484 351 7319ft 133kts
30-Jul-20 10:00 38.033598 -122.774524 352 6723ft 132kts
30-Jul-20 10:01 38.070161 -122.777350 353 6125ft 131kts
30-Jul-20 10:02 38.103970 -122.779954 352 6006ft 112kts
30-Jul-20 10:03 38.134861 -122.782459 351 6007ft 112kts
30-Jul-20 10:04 38.166006 -122.784855 353 6006ft 112kts
30-Jul-20 10:05 38.197362 -122.786911 353 6005ft 113kts
30-Jul-20 10:06 38.228892 -122.789202 353 6004ft 113kts
30-Jul-20 10:07 38.260229 -122.791554 353 6003ft 113kts
30-Jul-20 10:08 38.291750 -122.793942 353 6002ft 113kts
30-Jul-20 10:09 38.323113 -122.796355 353 6001ft 113kts
30-Jul-20 10:10 38.354582 -122.798801 353 6001ft 113kts
30-Jul-20 10:11 38.386076 -122.801205 353 6000ft 113kts
30-Jul-20 10:12 38.417749 -122.803620 354 5873ft 121kts
30-Jul-20 10:13 38.452093 -122.806095 355 5274ft 124kts
30-Jul-20 10:14 38.486608 -122.808717 355 4669ft 124kts
30-Jul-20 10:15 38.520102 -122.816897 336 4056ft 124kts
30-Jul-20 10:16 38.550705 -122.833110 333 3547ft 115kts
30-Jul-20 10:17 38.579657 -122.848581 333 3105ft 108kts
30-Jul-20 10:19 38.606672 -122.866438 326 2797ft 108kts
30-Jul-20 10:20 38.631595 -122.884981 325 2509ft 101kts
30-Jul-20 10:21 38.657118 -122.904212 326 2500ft 108kts
30-Jul-20 10:22 38.683522 -122.923807 327 2316ft 114kts
30-Jul-20 10:23 38.709505 -122.943127 327 1734ft 89kts
30-Jul-20 10:24 38.729722 -122.958319 328 1314ft 92kts
30-Jul-20 10:25 38.748565 -122.971612 324 783ft 70kts
30-Jul-20 10:26 38.764893 -122.984748 328 456ft 69kts
30-Jul-20 10:27 38.777259 -122.993284 325 269ft 12kts
30-Jul-20 10:28 38.775205 -122.992509 154 268ft 12kts
30-Jul-20 10:29 38.774552 -122.992942 342 273ft 0kts
30-Jul-20 10:30 38.774552 -122.992942 342 273ft 0kts

Navigation Log

Ident Type
Flight plan parsing failed, navigation log unavailable